sensor_id;sensor_type;location;lat;lon;timestamp;P1;durP1;ratioP1;P2;durP2;ratioP2
32697;SDS011;19087;51.062;3.754;2022-07-22T00:01:10;14.35;;;3.50;;
32697;SDS011;19087;51.062;3.754;2022-07-22T00:03:36;11.98;;;3.28;;
32697;SDS011;19087;51.062;3.754;2022-07-22T00:06:05;14.15;;;3.50;;
32697;SDS011;19087;51.062;3.754;2022-07-22T00:08:33;16.40;;;3.70;;
32697;SDS011;19087;51.062;3.754;2022-07-22T00:10:59;15.60;;;3.80;;
32697;SDS011;19087;51.062;3.754;2022-07-22T00:13:25;12.10;;;3.20;;
32697;SDS011;19087;51.062;3.754;2022-07-22T00:15:51;16.23;;;3.90;;
32697;SDS011;19087;51.062;3.754;2022-07-22T00:18:16;16.63;;;4.43;;
32697;SDS011;19087;51.062;3.754;2022-07-22T00:20:42;17.25;;;3.80;;
32697;SDS011;19087;51.062;3.754;2022-07-22T00:23:11;9.40;;;3.40;;
32697;SDS011;19087;51.062;3.754;2022-07-22T00:25:37;10.30;;;3.45;;
32697;SDS011;19087;51.062;3.754;2022-07-22T00:28:03;9.43;;;3.80;;
32697;SDS011;19087;51.062;3.754;2022-07-22T00:30:30;9.13;;;3.20;;
32697;SDS011;19087;51.062;3.754;2022-07-22T00:32:55;14.07;;;3.85;;
32697;SDS011;19087;51.062;3.754;2022-07-22T00:35:21;9.52;;;3.50;;
32697;SDS011;19087;51.062;3.754;2022-07-22T00:37:48;11.85;;;3.40;;
32697;SDS011;19087;51.062;3.754;2022-07-22T00:40:14;20.63;;;3.70;;
32697;SDS011;19087;51.062;3.754;2022-07-22T00:42:41;10.10;;;3.40;;
32697;SDS011;19087;51.062;3.754;2022-07-22T00:45:07;11.25;;;3.33;;
32697;SDS011;19087;51.062;3.754;2022-07-22T00:47:33;15.50;;;4.55;;
32697;SDS011;19087;51.062;3.754;2022-07-22T00:49:59;14.77;;;4.70;;
32697;SDS011;19087;51.062;3.754;2022-07-22T00:52:25;17.10;;;3.53;;
32697;SDS011;19087;51.062;3.754;2022-07-22T00:54:52;18.55;;;3.58;;
32697;SDS011;19087;51.062;3.754;2022-07-22T00:57:20;10.68;;;3.17;;
32697;SDS011;19087;51.062;3.754;2022-07-22T00:59:46;14.98;;;3.70;;
32697;SDS011;19087;51.062;3.754;2022-07-22T01:02:12;11.30;;;3.17;;
32697;SDS011;19087;51.062;3.754;2022-07-22T01:04:40;12.32;;;3.60;;
32697;SDS011;19087;51.062;3.754;2022-07-22T01:07:06;12.40;;;3.97;;
32697;SDS011;19087;51.062;3.754;2022-07-22T01:09:31;10.77;;;3.88;;
32697;SDS011;19087;51.062;3.754;2022-07-22T01:11:58;16.80;;;4.20;;
32697;SDS011;19087;51.062;3.754;2022-07-22T01:14:23;13.90;;;4.28;;
32697;SDS011;19087;51.062;3.754;2022-07-22T01:16:49;22.20;;;4.63;;
32697;SDS011;19087;51.062;3.754;2022-07-22T01:19:15;10.07;;;3.25;;
32697;SDS011;19087;51.062;3.754;2022-07-22T01:21:41;16.25;;;3.90;;
32697;SDS011;19087;51.062;3.754;2022-07-22T01:24:07;12.18;;;3.83;;
32697;SDS011;19087;51.062;3.754;2022-07-22T01:26:32;15.27;;;3.67;;
32697;SDS011;19087;51.062;3.754;2022-07-22T01:28:58;14.45;;;4.28;;
32697;SDS011;19087;51.062;3.754;2022-07-22T01:31:24;16.02;;;3.83;;
32697;SDS011;19087;51.062;3.754;2022-07-22T01:33:50;12.63;;;3.45;;
32697;SDS011;19087;51.062;3.754;2022-07-22T01:36:16;14.48;;;4.43;;
32697;SDS011;19087;51.062;3.754;2022-07-22T01:38:42;15.27;;;3.97;;
32697;SDS011;19087;51.062;3.754;2022-07-22T01:41:08;10.10;;;4.38;;
32697;SDS011;19087;51.062;3.754;2022-07-22T01:43:35;17.10;;;4.70;;
32697;SDS011;19087;51.062;3.754;2022-07-22T01:46:02;18.85;;;5.68;;
32697;SDS011;19087;51.062;3.754;2022-07-22T01:48:28;14.85;;;4.30;;
32697;SDS011;19087;51.062;3.754;2022-07-22T01:50:56;12.07;;;3.58;;
32697;SDS011;19087;51.062;3.754;2022-07-22T01:53:24;14.15;;;4.63;;
32697;SDS011;19087;51.062;3.754;2022-07-22T01:55:50;19.38;;;4.47;;
32697;SDS011;19087;51.062;3.754;2022-07-22T01:58:16;11.50;;;4.13;;
32697;SDS011;19087;51.062;3.754;2022-07-22T02:00:42;18.92;;;4.32;;
32697;SDS011;19087;51.062;3.754;2022-07-22T02:03:08;20.33;;;4.90;;
32697;SDS011;19087;51.062;3.754;2022-07-22T02:05:35;11.18;;;3.25;;
32697;SDS011;19087;51.062;3.754;2022-07-22T02:08:05;10.23;;;3.65;;
32697;SDS011;19087;51.062;3.754;2022-07-22T02:10:36;16.52;;;4.10;;
32697;SDS011;19087;51.062;3.754;2022-07-22T02:13:03;10.38;;;3.90;;
32697;SDS011;19087;51.062;3.754;2022-07-22T02:15:29;15.27;;;3.95;;
32697;SDS011;19087;51.062;3.754;2022-07-22T02:17:55;17.80;;;3.65;;
32697;SDS011;19087;51.062;3.754;2022-07-22T02:20:21;11.02;;;3.78;;
32697;SDS011;19087;51.062;3.754;2022-07-22T02:22:48;10.30;;;4.18;;
32697;SDS011;19087;51.062;3.754;2022-07-22T02:25:15;9.93;;;3.10;;
32697;SDS011;19087;51.062;3.754;2022-07-22T02:27:43;20.65;;;3.88;;
32697;SDS011;19087;51.062;3.754;2022-07-22T02:30:09;12.77;;;3.35;;
32697;SDS011;19087;51.062;3.754;2022-07-22T02:32:35;13.60;;;3.85;;
32697;SDS011;19087;51.062;3.754;2022-07-22T02:35:01;16.85;;;5.47;;
32697;SDS011;19087;51.062;3.754;2022-07-22T02:37:27;16.08;;;4.25;;
32697;SDS011;19087;51.062;3.754;2022-07-22T02:39:53;14.13;;;4.20;;
32697;SDS011;19087;51.062;3.754;2022-07-22T02:42:19;12.57;;;3.33;;
32697;SDS011;19087;51.062;3.754;2022-07-22T02:44:45;17.15;;;4.72;;
32697;SDS011;19087;51.062;3.754;2022-07-22T02:47:12;14.50;;;4.18;;
32697;SDS011;19087;51.062;3.754;2022-07-22T02:49:40;8.85;;;3.65;;
32697;SDS011;19087;51.062;3.754;2022-07-22T02:52:06;14.57;;;3.60;;
32697;SDS011;19087;51.062;3.754;2022-07-22T02:54:33;14.95;;;3.47;;
32697;SDS011;19087;51.062;3.754;2022-07-22T02:56:59;15.90;;;3.85;;
32697;SDS011;19087;51.062;3.754;2022-07-22T02:59:25;8.75;;;3.17;;
32697;SDS011;19087;51.062;3.754;2022-07-22T03:01:52;11.13;;;3.47;;
32697;SDS011;19087;51.062;3.754;2022-07-22T03:04:17;12.48;;;4.05;;
32697;SDS011;19087;51.062;3.754;2022-07-22T03:06:44;12.63;;;3.88;;
32697;SDS011;19087;51.062;3.754;2022-07-22T03:09:18;9.90;;;3.45;;
32697;SDS011;19087;51.062;3.754;2022-07-22T03:11:45;9.68;;;3.63;;
32697;SDS011;19087;51.062;3.754;2022-07-22T03:14:11;10.70;;;3.78;;
32697;SDS011;19087;51.062;3.754;2022-07-22T03:16:37;11.48;;;3.60;;
32697;SDS011;19087;51.062;3.754;2022-07-22T03:19:03;10.52;;;3.63;;
32697;SDS011;19087;51.062;3.754;2022-07-22T03:21:28;13.77;;;3.53;;
32697;SDS011;19087;51.062;3.754;2022-07-22T03:23:57;8.40;;;3.50;;
32697;SDS011;19087;51.062;3.754;2022-07-22T03:26:24;14.60;;;3.92;;
32697;SDS011;19087;51.062;3.754;2022-07-22T03:28:50;15.05;;;3.75;;
32697;SDS011;19087;51.062;3.754;2022-07-22T03:31:17;10.45;;;3.65;;
32697;SDS011;19087;51.062;3.754;2022-07-22T03:33:43;15.85;;;3.67;;
32697;SDS011;19087;51.062;3.754;2022-07-22T03:36:09;12.63;;;3.40;;
32697;SDS011;19087;51.062;3.754;2022-07-22T03:38:35;7.35;;;3.45;;
32697;SDS011;19087;51.062;3.754;2022-07-22T03:41:01;10.43;;;4.28;;
32697;SDS011;19087;51.062;3.754;2022-07-22T03:43:27;8.88;;;3.38;;
32697;SDS011;19087;51.062;3.754;2022-07-22T03:45:53;12.73;;;3.65;;
32697;SDS011;19087;51.062;3.754;2022-07-22T03:48:21;13.80;;;4.60;;
32697;SDS011;19087;51.062;3.754;2022-07-22T03:50:47;13.48;;;3.25;;
32697;SDS011;19087;51.062;3.754;2022-07-22T03:53:15;14.30;;;4.68;;
32697;SDS011;19087;51.062;3.754;2022-07-22T03:55:42;13.57;;;3.22;;
32697;SDS011;19087;51.062;3.754;2022-07-22T03:58:08;11.77;;;3.80;;
32697;SDS011;19087;51.062;3.754;2022-07-22T04:00:34;12.13;;;3.88;;
32697;SDS011;19087;51.062;3.754;2022-07-22T04:02:59;15.05;;;3.55;;
32697;SDS011;19087;51.062;3.754;2022-07-22T04:05:25;9.73;;;3.90;;
32697;SDS011;19087;51.062;3.754;2022-07-22T04:07:51;17.75;;;4.18;;
32697;SDS011;19087;51.062;3.754;2022-07-22T04:10:17;15.23;;;3.58;;
32697;SDS011;19087;51.062;3.754;2022-07-22T04:12:43;9.57;;;3.58;;
32697;SDS011;19087;51.062;3.754;2022-07-22T04:15:08;13.23;;;4.10;;
32697;SDS011;19087;51.062;3.754;2022-07-22T04:17:34;11.23;;;3.10;;
32697;SDS011;19087;51.062;3.754;2022-07-22T04:20:00;13.18;;;4.10;;
32697;SDS011;19087;51.062;3.754;2022-07-22T04:22:26;10.93;;;3.90;;
32697;SDS011;19087;51.062;3.754;2022-07-22T04:24:52;11.27;;;4.03;;
32697;SDS011;19087;51.062;3.754;2022-07-22T04:27:18;12.30;;;4.25;;
32697;SDS011;19087;51.062;3.754;2022-07-22T04:29:44;7.45;;;3.13;;
32697;SDS011;19087;51.062;3.754;2022-07-22T04:32:09;9.30;;;3.38;;
32697;SDS011;19087;51.062;3.754;2022-07-22T04:34:36;11.25;;;3.20;;
32697;SDS011;19087;51.062;3.754;2022-07-22T04:37:02;10.95;;;3.83;;
32697;SDS011;19087;51.062;3.754;2022-07-22T04:39:28;11.23;;;4.18;;
32697;SDS011;19087;51.062;3.754;2022-07-22T04:41:54;11.68;;;3.25;;
32697;SDS011;19087;51.062;3.754;2022-07-22T04:44:20;12.40;;;3.80;;
32697;SDS011;19087;51.062;3.754;2022-07-22T04:46:47;10.90;;;3.72;;
32697;SDS011;19087;51.062;3.754;2022-07-22T04:49:13;15.55;;;3.90;;
32697;SDS011;19087;51.062;3.754;2022-07-22T04:51:39;12.52;;;3.67;;
32697;SDS011;19087;51.062;3.754;2022-07-22T04:54:07;13.90;;;3.40;;
32697;SDS011;19087;51.062;3.754;2022-07-22T04:56:34;9.65;;;2.90;;
32697;SDS011;19087;51.062;3.754;2022-07-22T04:59:00;10.88;;;3.58;;
32697;SDS011;19087;51.062;3.754;2022-07-22T05:01:26;12.95;;;3.35;;
32697;SDS011;19087;51.062;3.754;2022-07-22T05:03:51;11.48;;;3.20;;
32697;SDS011;19087;51.062;3.754;2022-07-22T05:06:17;12.48;;;3.88;;
32697;SDS011;19087;51.062;3.754;2022-07-22T05:08:43;13.38;;;3.10;;
32697;SDS011;19087;51.062;3.754;2022-07-22T05:11:09;9.80;;;3.03;;
32697;SDS011;19087;51.062;3.754;2022-07-22T05:13:36;14.20;;;3.40;;
32697;SDS011;19087;51.062;3.754;2022-07-22T05:16:02;10.57;;;3.05;;
32697;SDS011;19087;51.062;3.754;2022-07-22T05:18:29;10.88;;;3.08;;
32697;SDS011;19087;51.062;3.754;2022-07-22T05:20:55;10.20;;;2.80;;
32697;SDS011;19087;51.062;3.754;2022-07-22T05:23:20;13.68;;;2.80;;
32697;SDS011;19087;51.062;3.754;2022-07-22T05:25:46;10.98;;;2.83;;
32697;SDS011;19087;51.062;3.754;2022-07-22T05:28:12;9.68;;;2.75;;
32697;SDS011;19087;51.062;3.754;2022-07-22T05:30:38;14.00;;;3.42;;
32697;SDS011;19087;51.062;3.754;2022-07-22T05:33:03;11.55;;;3.00;;
32697;SDS011;19087;51.062;3.754;2022-07-22T05:35:29;6.63;;;2.55;;
32697;SDS011;19087;51.062;3.754;2022-07-22T05:37:55;8.88;;;3.15;;
32697;SDS011;19087;51.062;3.754;2022-07-22T05:40:21;7.82;;;2.55;;
32697;SDS011;19087;51.062;3.754;2022-07-22T05:42:47;8.27;;;2.67;;
32697;SDS011;19087;51.062;3.754;2022-07-22T05:45:13;10.80;;;2.50;;
32697;SDS011;19087;51.062;3.754;2022-07-22T05:47:38;9.27;;;2.78;;
32697;SDS011;19087;51.062;3.754;2022-07-22T05:50:05;10.15;;;3.08;;
32697;SDS011;19087;51.062;3.754;2022-07-22T05:52:32;9.02;;;3.00;;
32697;SDS011;19087;51.062;3.754;2022-07-22T05:55:00;8.00;;;2.78;;
32697;SDS011;19087;51.062;3.754;2022-07-22T05:57:26;11.60;;;2.95;;
32697;SDS011;19087;51.062;3.754;2022-07-22T05:59:51;9.77;;;2.83;;
32697;SDS011;19087;51.062;3.754;2022-07-22T06:02:20;12.80;;;2.88;;
32697;SDS011;19087;51.062;3.754;2022-07-22T06:04:46;9.07;;;2.25;;
32697;SDS011;19087;51.062;3.754;2022-07-22T06:07:12;10.27;;;2.72;;
32697;SDS011;19087;51.062;3.754;2022-07-22T06:09:37;9.38;;;3.33;;
32697;SDS011;19087;51.062;3.754;2022-07-22T06:12:03;12.25;;;3.28;;
32697;SDS011;19087;51.062;3.754;2022-07-22T06:14:29;9.27;;;2.70;;
32697;SDS011;19087;51.062;3.754;2022-07-22T06:16:55;7.45;;;2.60;;
32697;SDS011;19087;51.062;3.754;2022-07-22T06:19:22;11.38;;;3.55;;
32697;SDS011;19087;51.062;3.754;2022-07-22T06:21:51;8.90;;;3.05;;
32697;SDS011;19087;51.062;3.754;2022-07-22T06:24:18;8.98;;;3.20;;
32697;SDS011;19087;51.062;3.754;2022-07-22T06:26:43;9.02;;;2.45;;
32697;SDS011;19087;51.062;3.754;2022-07-22T06:29:09;9.45;;;2.40;;
32697;SDS011;19087;51.062;3.754;2022-07-22T06:31:35;8.70;;;2.47;;
32697;SDS011;19087;51.062;3.754;2022-07-22T06:34:02;10.02;;;2.33;;
32697;SDS011;19087;51.062;3.754;2022-07-22T06:36:31;8.77;;;2.05;;
32697;SDS011;19087;51.062;3.754;2022-07-22T06:38:57;8.80;;;2.70;;
32697;SDS011;19087;51.062;3.754;2022-07-22T06:41:23;7.68;;;2.22;;
32697;SDS011;19087;51.062;3.754;2022-07-22T06:43:48;9.38;;;2.60;;
32697;SDS011;19087;51.062;3.754;2022-07-22T06:46:14;8.30;;;2.58;;
32697;SDS011;19087;51.062;3.754;2022-07-22T06:48:40;11.18;;;2.80;;
32697;SDS011;19087;51.062;3.754;2022-07-22T06:51:07;8.10;;;2.63;;
32697;SDS011;19087;51.062;3.754;2022-07-22T06:53:33;8.45;;;2.70;;
32697;SDS011;19087;51.062;3.754;2022-07-22T06:56:00;13.15;;;3.10;;
32697;SDS011;19087;51.062;3.754;2022-07-22T06:58:26;29.63;;;10.05;;
32697;SDS011;19087;51.062;3.754;2022-07-22T07:00:51;20.80;;;7.07;;
32697;SDS011;19087;51.062;3.754;2022-07-22T07:03:17;10.88;;;3.15;;
32697;SDS011;19087;51.062;3.754;2022-07-22T07:05:43;7.57;;;2.25;;
32697;SDS011;19087;51.062;3.754;2022-07-22T07:08:11;11.70;;;2.53;;
32697;SDS011;19087;51.062;3.754;2022-07-22T07:10:36;10.40;;;2.75;;
32697;SDS011;19087;51.062;3.754;2022-07-22T07:13:02;9.63;;;2.65;;
32697;SDS011;19087;51.062;3.754;2022-07-22T07:15:28;10.05;;;2.80;;
32697;SDS011;19087;51.062;3.754;2022-07-22T07:17:54;8.73;;;2.08;;
32697;SDS011;19087;51.062;3.754;2022-07-22T07:20:21;8.30;;;2.45;;
32697;SDS011;19087;51.062;3.754;2022-07-22T07:22:48;13.13;;;3.40;;
32697;SDS011;19087;51.062;3.754;2022-07-22T07:25:14;14.40;;;2.65;;
32697;SDS011;19087;51.062;3.754;2022-07-22T07:27:41;12.35;;;4.55;;
32697;SDS011;19087;51.062;3.754;2022-07-22T07:30:07;13.32;;;4.38;;
32697;SDS011;19087;51.062;3.754;2022-07-22T07:32:37;7.00;;;2.40;;
32697;SDS011;19087;51.062;3.754;2022-07-22T07:35:04;9.18;;;2.58;;
32697;SDS011;19087;51.062;3.754;2022-07-22T07:37:31;7.68;;;2.38;;
32697;SDS011;19087;51.062;3.754;2022-07-22T07:39:58;7.72;;;1.95;;
32697;SDS011;19087;51.062;3.754;2022-07-22T07:42:24;10.98;;;2.17;;
32697;SDS011;19087;51.062;3.754;2022-07-22T07:44:51;11.15;;;2.97;;
32697;SDS011;19087;51.062;3.754;2022-07-22T07:47:17;11.60;;;2.40;;
32697;SDS011;19087;51.062;3.754;2022-07-22T07:49:46;11.55;;;3.35;;
32697;SDS011;19087;51.062;3.754;2022-07-22T07:52:12;8.50;;;2.50;;
32697;SDS011;19087;51.062;3.754;2022-07-22T07:54:39;7.90;;;2.33;;
32697;SDS011;19087;51.062;3.754;2022-07-22T07:57:05;9.05;;;2.72;;
32697;SDS011;19087;51.062;3.754;2022-07-22T07:59:34;10.02;;;1.95;;
32697;SDS011;19087;51.062;3.754;2022-07-22T08:02:00;10.25;;;2.55;;
32697;SDS011;19087;51.062;3.754;2022-07-22T08:04:26;11.00;;;2.20;;
32697;SDS011;19087;51.062;3.754;2022-07-22T08:06:51;5.72;;;1.75;;
32697;SDS011;19087;51.062;3.754;2022-07-22T08:09:17;6.25;;;1.90;;
32697;SDS011;19087;51.062;3.754;2022-07-22T08:11:43;6.03;;;2.08;;
32697;SDS011;19087;51.062;3.754;2022-07-22T08:14:09;7.65;;;2.78;;
32697;SDS011;19087;51.062;3.754;2022-07-22T08:16:34;4.90;;;2.25;;
32697;SDS011;19087;51.062;3.754;2022-07-22T08:19:02;6.85;;;2.47;;
32697;SDS011;19087;51.062;3.754;2022-07-22T08:21:28;10.13;;;2.20;;
32697;SDS011;19087;51.062;3.754;2022-07-22T08:23:54;11.15;;;2.63;;
32697;SDS011;19087;51.062;3.754;2022-07-22T08:26:20;6.05;;;2.60;;
32697;SDS011;19087;51.062;3.754;2022-07-22T08:28:47;6.85;;;2.88;;
32697;SDS011;19087;51.062;3.754;2022-07-22T08:31:13;4.85;;;2.70;;
32697;SDS011;19087;51.062;3.754;2022-07-22T08:33:39;9.15;;;3.75;;
32697;SDS011;19087;51.062;3.754;2022-07-22T08:36:05;10.07;;;3.78;;
32697;SDS011;19087;51.062;3.754;2022-07-22T08:38:31;8.82;;;3.60;;
32697;SDS011;19087;51.062;3.754;2022-07-22T08:40:57;8.05;;;4.18;;
32697;SDS011;19087;51.062;3.754;2022-07-22T08:43:23;11.07;;;3.97;;
32697;SDS011;19087;51.062;3.754;2022-07-22T08:45:51;11.73;;;5.18;;
32697;SDS011;19087;51.062;3.754;2022-07-22T08:48:18;12.20;;;4.22;;
32697;SDS011;19087;51.062;3.754;2022-07-22T08:50:43;7.97;;;4.03;;
32697;SDS011;19087;51.062;3.754;2022-07-22T08:53:12;9.40;;;3.80;;
32697;SDS011;19087;51.062;3.754;2022-07-22T08:55:43;13.18;;;4.28;;
32697;SDS011;19087;51.062;3.754;2022-07-22T08:58:14;12.20;;;4.13;;
32697;SDS011;19087;51.062;3.754;2022-07-22T09:00:42;8.48;;;3.67;;
32697;SDS011;19087;51.062;3.754;2022-07-22T09:03:21;16.15;;;4.50;;
32697;SDS011;19087;51.062;3.754;2022-07-22T09:05:53;8.85;;;4.00;;
32697;SDS011;19087;51.062;3.754;2022-07-22T09:10:48;8.20;;;3.70;;
32697;SDS011;19087;51.062;3.754;2022-07-22T09:13:17;9.40;;;4.28;;
32697;SDS011;19087;51.062;3.754;2022-07-22T09:15:49;9.70;;;3.80;;
32697;SDS011;19087;51.062;3.754;2022-07-22T09:18:18;8.73;;;3.65;;
32697;SDS011;19087;51.062;3.754;2022-07-22T09:20:45;12.85;;;4.00;;
32697;SDS011;19087;51.062;3.754;2022-07-22T09:23:12;9.52;;;4.35;;
32697;SDS011;19087;51.062;3.754;2022-07-22T09:25:47;10.13;;;4.03;;
32697;SDS011;19087;51.062;3.754;2022-07-22T09:28:15;5.85;;;3.30;;
32697;SDS011;19087;51.062;3.754;2022-07-22T09:30:53;8.95;;;3.88;;
32697;SDS011;19087;51.062;3.754;2022-07-22T09:33:23;9.68;;;4.30;;
32697;SDS011;19087;51.062;3.754;2022-07-22T09:35:49;9.63;;;4.70;;
32697;SDS011;19087;51.062;3.754;2022-07-22T09:38:20;8.57;;;3.80;;
32697;SDS011;19087;51.062;3.754;2022-07-22T09:40:55;7.55;;;3.72;;
32697;SDS011;19087;51.062;3.754;2022-07-22T09:43:20;5.47;;;3.97;;
32697;SDS011;19087;51.062;3.754;2022-07-22T09:45:51;7.03;;;3.80;;
32697;SDS011;19087;51.062;3.754;2022-07-22T09:48:24;7.88;;;3.38;;
32697;SDS011;19087;51.062;3.754;2022-07-22T09:50:51;7.97;;;4.40;;
32697;SDS011;19087;51.062;3.754;2022-07-22T09:53:19;10.77;;;4.78;;
32697;SDS011;19087;51.062;3.754;2022-07-22T09:55:47;7.40;;;3.83;;
32697;SDS011;19087;51.062;3.754;2022-07-22T09:58:14;8.00;;;4.00;;
32697;SDS011;19087;51.062;3.754;2022-07-22T10:00:41;13.32;;;5.80;;
32697;SDS011;19087;51.062;3.754;2022-07-22T10:03:08;8.88;;;5.05;;
32697;SDS011;19087;51.062;3.754;2022-07-22T10:05:38;10.02;;;5.15;;
32697;SDS011;19087;51.062;3.754;2022-07-22T10:08:06;9.38;;;5.03;;
32697;SDS011;19087;51.062;3.754;2022-07-22T10:10:37;9.27;;;4.70;;
32697;SDS011;19087;51.062;3.754;2022-07-22T10:13:05;8.02;;;4.78;;
32697;SDS011;19087;51.062;3.754;2022-07-22T10:15:32;9.05;;;4.50;;
32697;SDS011;19087;51.062;3.754;2022-07-22T10:17:59;7.95;;;4.80;;
32697;SDS011;19087;51.062;3.754;2022-07-22T10:20:29;11.88;;;4.93;;
32697;SDS011;19087;51.062;3.754;2022-07-22T10:23:06;9.80;;;4.78;;
32697;SDS011;19087;51.062;3.754;2022-07-22T10:25:47;10.65;;;5.43;;
32697;SDS011;19087;51.062;3.754;2022-07-22T10:28:27;9.80;;;4.53;;
32697;SDS011;19087;51.062;3.754;2022-07-22T10:33:40;8.10;;;4.85;;
32697;SDS011;19087;51.062;3.754;2022-07-22T10:36:07;8.93;;;5.20;;
32697;SDS011;19087;51.062;3.754;2022-07-22T10:38:34;7.63;;;4.53;;
32697;SDS011;19087;51.062;3.754;2022-07-22T10:41:00;9.93;;;4.55;;
32697;SDS011;19087;51.062;3.754;2022-07-22T10:43:28;8.73;;;5.13;;
32697;SDS011;19087;51.062;3.754;2022-07-22T10:46:00;10.40;;;4.90;;
32697;SDS011;19087;51.062;3.754;2022-07-22T10:51:06;10.98;;;4.53;;
32697;SDS011;19087;51.062;3.754;2022-07-22T10:56:19;16.40;;;5.97;;
32697;SDS011;19087;51.062;3.754;2022-07-22T10:58:46;9.95;;;5.13;;
32697;SDS011;19087;51.062;3.754;2022-07-22T11:01:29;10.40;;;4.85;;
32697;SDS011;19087;51.062;3.754;2022-07-22T11:03:56;9.13;;;4.95;;
32697;SDS011;19087;51.062;3.754;2022-07-22T11:06:42;9.52;;;5.43;;
32697;SDS011;19087;51.062;3.754;2022-07-22T11:09:11;11.05;;;6.30;;
32697;SDS011;19087;51.062;3.754;2022-07-22T11:11:40;10.68;;;5.57;;
32697;SDS011;19087;51.062;3.754;2022-07-22T11:14:10;10.15;;;5.90;;
32697;SDS011;19087;51.062;3.754;2022-07-22T11:16:41;10.75;;;5.90;;
32697;SDS011;19087;51.062;3.754;2022-07-22T11:19:07;8.32;;;5.50;;
32697;SDS011;19087;51.062;3.754;2022-07-22T11:21:34;11.60;;;5.93;;
32697;SDS011;19087;51.062;3.754;2022-07-22T11:24:02;10.85;;;5.20;;
32697;SDS011;19087;51.062;3.754;2022-07-22T11:26:39;11.27;;;6.20;;
32697;SDS011;19087;51.062;3.754;2022-07-22T11:29:07;10.90;;;5.25;;
32697;SDS011;19087;51.062;3.754;2022-07-22T11:31:35;8.43;;;5.05;;
32697;SDS011;19087;51.062;3.754;2022-07-22T11:34:09;9.95;;;5.35;;
32697;SDS011;19087;51.062;3.754;2022-07-22T11:36:38;9.47;;;4.80;;
32697;SDS011;19087;51.062;3.754;2022-07-22T11:39:05;9.88;;;4.57;;
32697;SDS011;19087;51.062;3.754;2022-07-22T11:41:32;6.03;;;4.28;;
32697;SDS011;19087;51.062;3.754;2022-07-22T11:43:58;12.15;;;6.15;;
32697;SDS011;19087;51.062;3.754;2022-07-22T11:46:25;15.35;;;7.30;;
32697;SDS011;19087;51.062;3.754;2022-07-22T11:48:52;8.55;;;5.80;;
32697;SDS011;19087;51.062;3.754;2022-07-22T11:51:19;10.55;;;5.68;;
32697;SDS011;19087;51.062;3.754;2022-07-22T11:53:45;18.65;;;6.72;;
32697;SDS011;19087;51.062;3.754;2022-07-22T11:56:11;10.55;;;5.78;;
32697;SDS011;19087;51.062;3.754;2022-07-22T12:01:11;11.50;;;5.35;;
32697;SDS011;19087;51.062;3.754;2022-07-22T12:03:39;10.57;;;6.35;;
32697;SDS011;19087;51.062;3.754;2022-07-22T12:06:08;12.77;;;5.82;;
32697;SDS011;19087;51.062;3.754;2022-07-22T12:08:40;13.77;;;6.40;;
32697;SDS011;19087;51.062;3.754;2022-07-22T12:11:11;9.75;;;5.97;;
32697;SDS011;19087;51.062;3.754;2022-07-22T12:13:43;14.82;;;6.90;;
32697;SDS011;19087;51.062;3.754;2022-07-22T12:19:07;8.43;;;5.47;;
32697;SDS011;19087;51.062;3.754;2022-07-22T12:21:49;7.57;;;5.30;;
32697;SDS011;19087;51.062;3.754;2022-07-22T12:24:33;11.93;;;4.82;;
32697;SDS011;19087;51.062;3.754;2022-07-22T12:27:09;10.45;;;5.75;;
32697;SDS011;19087;51.062;3.754;2022-07-22T12:32:04;8.18;;;5.40;;
32697;SDS011;19087;51.062;3.754;2022-07-22T12:34:37;9.98;;;5.05;;
32697;SDS011;19087;51.062;3.754;2022-07-22T12:42:25;10.75;;;5.05;;
32697;SDS011;19087;51.062;3.754;2022-07-22T12:52:59;9.32;;;4.53;;
32697;SDS011;19087;51.062;3.754;2022-07-22T12:55:30;8.85;;;4.80;;
32697;SDS011;19087;51.062;3.754;2022-07-22T12:58:00;10.73;;;4.72;;
32697;SDS011;19087;51.062;3.754;2022-07-22T13:00:28;10.30;;;4.80;;
32697;SDS011;19087;51.062;3.754;2022-07-22T13:02:56;11.20;;;4.85;;
32697;SDS011;19087;51.062;3.754;2022-07-22T13:05:22;10.18;;;5.10;;
32697;SDS011;19087;51.062;3.754;2022-07-22T13:07:49;6.75;;;5.28;;
32697;SDS011;19087;51.062;3.754;2022-07-22T13:10:15;10.43;;;5.80;;
32697;SDS011;19087;51.062;3.754;2022-07-22T13:12:41;8.07;;;4.18;;
32697;SDS011;19087;51.062;3.754;2022-07-22T13:15:08;8.40;;;4.53;;
32697;SDS011;19087;51.062;3.754;2022-07-22T13:17:34;10.10;;;4.88;;
32697;SDS011;19087;51.062;3.754;2022-07-22T13:20:01;10.10;;;4.43;;
32697;SDS011;19087;51.062;3.754;2022-07-22T13:22:28;8.57;;;5.07;;
32697;SDS011;19087;51.062;3.754;2022-07-22T13:24:53;12.13;;;5.20;;
32697;SDS011;19087;51.062;3.754;2022-07-22T13:27:19;9.38;;;4.60;;
32697;SDS011;19087;51.062;3.754;2022-07-22T13:29:45;11.20;;;4.97;;
32697;SDS011;19087;51.062;3.754;2022-07-22T13:32:10;8.40;;;4.68;;
32697;SDS011;19087;51.062;3.754;2022-07-22T13:34:36;12.45;;;5.38;;
32697;SDS011;19087;51.062;3.754;2022-07-22T13:37:01;6.95;;;4.28;;
32697;SDS011;19087;51.062;3.754;2022-07-22T13:39:27;10.40;;;4.10;;
32697;SDS011;19087;51.062;3.754;2022-07-22T13:41:53;8.00;;;3.63;;
32697;SDS011;19087;51.062;3.754;2022-07-22T13:44:19;9.60;;;3.90;;
32697;SDS011;19087;51.062;3.754;2022-07-22T13:46:44;10.60;;;3.83;;
32697;SDS011;19087;51.062;3.754;2022-07-22T13:49:10;10.63;;;4.57;;
32697;SDS011;19087;51.062;3.754;2022-07-22T13:51:37;13.35;;;4.32;;
32697;SDS011;19087;51.062;3.754;2022-07-22T13:54:02;9.77;;;3.58;;
32697;SDS011;19087;51.062;3.754;2022-07-22T13:56:29;8.65;;;3.88;;
32697;SDS011;19087;51.062;3.754;2022-07-22T13:58:57;7.38;;;4.00;;
32697;SDS011;19087;51.062;3.754;2022-07-22T14:01:23;6.45;;;3.90;;
32697;SDS011;19087;51.062;3.754;2022-07-22T14:03:49;8.02;;;3.72;;
32697;SDS011;19087;51.062;3.754;2022-07-22T14:06:14;8.75;;;4.32;;
32697;SDS011;19087;51.062;3.754;2022-07-22T14:08:40;8.10;;;3.88;;
32697;SDS011;19087;51.062;3.754;2022-07-22T14:11:06;13.07;;;4.70;;
32697;SDS011;19087;51.062;3.754;2022-07-22T14:13:31;10.93;;;4.28;;
32697;SDS011;19087;51.062;3.754;2022-07-22T14:15:57;6.93;;;4.57;;
32697;SDS011;19087;51.062;3.754;2022-07-22T14:18:42;11.30;;;5.07;;
32697;SDS011;19087;51.062;3.754;2022-07-22T14:21:09;10.65;;;4.72;;
32697;SDS011;19087;51.062;3.754;2022-07-22T14:23:35;9.48;;;5.10;;
32697;SDS011;19087;51.062;3.754;2022-07-22T14:26:00;14.35;;;5.07;;
32697;SDS011;19087;51.062;3.754;2022-07-22T14:28:26;10.38;;;5.47;;
32697;SDS011;19087;51.062;3.754;2022-07-22T14:30:51;9.30;;;5.20;;
32697;SDS011;19087;51.062;3.754;2022-07-22T14:33:17;9.27;;;5.75;;
32697;SDS011;19087;51.062;3.754;2022-07-22T14:35:43;11.55;;;5.88;;
32697;SDS011;19087;51.062;3.754;2022-07-22T14:38:08;7.03;;;4.85;;
32697;SDS011;19087;51.062;3.754;2022-07-22T14:40:34;13.48;;;6.47;;
32697;SDS011;19087;51.062;3.754;2022-07-22T14:42:59;10.35;;;6.13;;
32697;SDS011;19087;51.062;3.754;2022-07-22T14:45:25;7.65;;;5.57;;
32697;SDS011;19087;51.062;3.754;2022-07-22T14:47:51;12.93;;;6.38;;
32697;SDS011;19087;51.062;3.754;2022-07-22T14:50:16;7.57;;;5.35;;
32697;SDS011;19087;51.062;3.754;2022-07-22T14:52:42;11.60;;;6.18;;
32697;SDS011;19087;51.062;3.754;2022-07-22T14:55:08;8.82;;;7.05;;
32697;SDS011;19087;51.062;3.754;2022-07-22T14:57:34;10.10;;;6.60;;
32697;SDS011;19087;51.062;3.754;2022-07-22T14:59:59;9.27;;;6.22;;
32697;SDS011;19087;51.062;3.754;2022-07-22T15:02:25;13.20;;;6.70;;
32697;SDS011;19087;51.062;3.754;2022-07-22T15:04:51;9.43;;;6.60;;
32697;SDS011;19087;51.062;3.754;2022-07-22T15:07:17;10.73;;;7.35;;
32697;SDS011;19087;51.062;3.754;2022-07-22T15:09:42;11.45;;;6.55;;
32697;SDS011;19087;51.062;3.754;2022-07-22T15:12:08;10.30;;;6.32;;